Time;durP1;ratioP1;P1;durP2;ratioP2;P2;SDS_P1;SDS_P2;PMS_P1;PMS_P2;Temp;Humidity;BMP_temperature;BMP_pressure;BME280_temperature;BME280_humidity;BME280_pressure;Samples;Min_cycle;Max_cycle;Signal;HPM_P1;HPM_P2
2021/05/14 00:01:18;;;;;;;;;;;;;;;;;;4986105;28;20354;-51
2021/05/14 00:03:43;;;;;;;;;;;;;;;;;;4983393;28;19922;-53
2021/05/14 00:06:08;;;;;;;;;;;;;;;;;;4986042;28;19910;-54
2021/05/14 00:08:34;;;;;;;;;;;;;;;;;;4985613;28;19914;-51
2021/05/14 00:10:59;;;;;;;;;;;;;;;;;;4967212;28;20008;-51
2021/05/14 00:13:24;;;;;;;;;;;;;;;;;;4986411;28;20037;-53
2021/05/14 00:15:49;;;;;;;;;;;;;;;;;;4984466;28;20350;-53
2021/05/14 00:18:15;;;;;;;;;;;;;;;;;;4985223;28;19914;-51
2021/05/14 00:20:42;;;;;;;;;;;;;;;;;;4968378;28;19914;-51
2021/05/14 00:23:07;;;;;;;;;;;;;;;;;;4984053;28;20374;-51
2021/05/14 00:25:32;;;;;;;;;;;;;;;;;;4985571;28;20044;-51
2021/05/14 00:27:57;;;;;;;;;;;;;;;;;;4984319;28;19914;-51
2021/05/14 00:30:23;;;;;;;;;;;;;;;;;;4982787;28;20009;-50
2021/05/14 00:32:48;;;;;;;;;;;;;;;;;;4985989;28;20289;-53
2021/05/14 00:35:13;;;;;;;;;;;;;;;;;;4983578;28;19968;-53
2021/05/14 00:37:38;;;;;;;;;;;;;;;;;;4984444;28;19929;-55
2021/05/14 00:40:04;;;;;;;;;;;;;;;;;;4984484;28;19941;-52
2021/05/14 00:42:29;;;;;;;;;;;;;;;;;;4984189;28;19922;-51
2021/05/14 00:44:54;;;;;;;;;;;;;;;;;;4983235;28;19914;-50
2021/05/14 00:47:19;;;;;;;;;;;;;;;;;;4984263;28;19924;-50
2021/05/14 00:49:45;;;;;;;;;;;;;;;;;;4982683;28;19914;-50
2021/05/14 00:52:10;;;;;;;;;;;;;;;;;;4985089;28;19921;-50
2021/05/14 00:54:35;;;;;;;;;;;;;;;;;;4984754;28;19918;-50
2021/05/14 00:57:00;;;;;;;;;;;;;;;;;;4982321;28;19914;-52
2021/05/14 00:59:26;;;;;;;;;;;;;;;;;;4985605;28;19914;-51
2021/05/14 01:01:51;;;;;;;;;;;;;;;;;;4983686;28;19926;-54
2021/05/14 01:04:16;;;;;;;;;;;;;;;;;;4983245;28;19917;-50
2021/05/14 01:06:42;;;;;;;;;;;;;;;;;;4985821;28;19922;-51
2021/05/14 01:09:07;;;;;;;;;;;;;;;;;;4983402;28;19914;-53
2021/05/14 01:11:32;;;;;;;;;;;;;;;;;;4983835;28;19918;-53
2021/05/14 01:13:57;;;;;;;;;;;;;;;;;;4985028;28;19914;-55
2021/05/14 01:16:22;;;;;;;;;;;;;;;;;;4965966;28;19924;-51
2021/05/14 01:18:48;;;;;;;;;;;;;;;;;;4986063;28;19918;-52
2021/05/14 01:21:13;;;;;;;;;;;;;;;;;;4984164;28;20006;-55
2021/05/14 01:23:38;;;;;;;;;;;;;;;;;;4982567;28;19922;-52
2021/05/14 01:26:03;;;;;;;;;;;;;;;;;;4983984;28;19925;-56
2021/05/14 01:28:29;;;;;;;;;;;;;;;;;;4982290;28;19914;-53
2021/05/14 01:30:54;;;;;;;;;;;;;;;;;;4983811;28;19913;-51
2021/05/14 01:33:19;;;;;;;;;;;;;;;;;;4983096;28;19910;-52
2021/05/14 01:35:45;;;;;;;;;;;;;;;;;;4981727;28;19914;-50
2021/05/14 01:38:10;;;;;;;;;;;;;;;;;;4982922;28;20370;-50
2021/05/14 01:40:35;;;;;;;;;;;;;;;;;;4984305;28;19914;-52
2021/05/14 01:43:00;;;;;;;;;;;;;;;;;;4965622;28;19929;-51
2021/05/14 01:45:26;;;;;;;;;;;;;;;;;;4985131;28;20362;-51
2021/05/14 01:47:51;;;;;;;;;;;;;;;;;;4983404;28;20362;-60
2021/05/14 01:50:16;;;;;;;;;;;;;;;;;;4982122;28;19976;-49
2021/05/14 01:52:41;;;;;;;;;;;;;;;;;;4983734;28;20462;-52
2021/05/14 01:55:07;;;;;;;;;;;;;;;;;;4982379;28;19914;-58
2021/05/14 01:57:32;;;;;;;;;;;;;;;;;;4982878;28;20385;-52
2021/05/14 01:59:57;;;;;;;;;;;;;;;;;;4982720;28;19977;-51
2021/05/14 02:02:22;;;;;;;;;;;;;;;;;;4982580;28;20309;-54
2021/05/14 02:04:48;;;;;;;;;;;;;;;;;;4983865;28;19910;-52
2021/05/14 02:07:13;;;;;;;;;;;;;;;;;;4965848;28;20282;-52
2021/05/14 02:09:38;;;;;;;;;;;;;;;;;;4965687;28;19952;-53
2021/05/14 02:12:03;;;;;;;;;;;;;;;;;;4984519;28;19921;-53
2021/05/14 02:14:29;;;;;;;;;;;;;;;;;;4982845;28;19910;-52
2021/05/14 02:16:54;;;;;;;;;;;;;;;;;;4982051;28;19952;-56
2021/05/14 02:19:19;;;;;;;;;;;;;;;;;;4983187;28;20355;-52
2021/05/14 02:21:44;;;;;;;;;;;;;;;;;;4982289;28;20383;-51
2021/05/14 02:24:09;;;;;;;;;;;;;;;;;;4983870;28;19909;-53
2021/05/14 02:26:35;;;;;;;;;;;;;;;;;;4983655;28;19918;-54
2021/05/14 02:29:00;;;;;;;;;;;;;;;;;;4982184;28;20004;-51
2021/05/14 02:31:25;;;;;;;;;;;;;;;;;;4982826;28;20004;-51
2021/05/14 02:33:50;;;;;;;;;;;;;;;;;;4982959;28;20012;-54
2021/05/14 02:36:16;;;;;;;;;;;;;;;;;;4982333;28;19913;-50
2021/05/14 02:38:41;;;;;;;;;;;;;;;;;;4982915;28;20416;-50
2021/05/14 02:41:10;;;;;;;;;;;;;;;;;;4981698;28;19917;-51
2021/05/14 02:43:35;;;;;;;;;;;;;;;;;;4981292;28;20374;-51
2021/05/14 02:46:01;;;;;;;;;;;;;;;;;;4984318;28;20049;-51
2021/05/14 02:48:26;;;;;;;;;;;;;;;;;;4983102;28;19914;-49
2021/05/14 02:50:51;;;;;;;;;;;;;;;;;;4985396;28;19917;-50
2021/05/14 02:53:16;;;;;;;;;;;;;;;;;;4994052;28;19914;-50
2021/05/14 02:55:41;;;;;;;;;;;;;;;;;;4992788;28;19913;-51
2021/05/14 02:58:07;;;;;;;;;;;;;;;;;;4992312;28;19913;-50
2021/05/14 03:00:32;;;;;;;;;;;;;;;;;;4993706;28;19924;-51
2021/05/14 03:02:57;;;;;;;;;;;;;;;;;;4992639;28;19922;-53
2021/05/14 03:05:25;;;;;;;;;;;;;;;;;;4993992;28;20424;-55
2021/05/14 03:07:50;;;;;;;;;;;;;;;;;;4992674;28;19920;-50
2021/05/14 03:10:15;;;;;;;;;;;;;;;;;;4993354;28;20370;-49
2021/05/14 03:12:40;;;;;;;;;;;;;;;;;;4994016;28;19910;-50
2021/05/14 03:15:06;;;;;;;;;;;;;;;;;;4993778;28;19921;-49
2021/05/14 03:17:31;;;;;;;;;;;;;;;;;;4993584;28;19913;-49
2021/05/14 03:19:56;;;;;;;;;;;;;;;;;;4992604;28;20366;-51
2021/05/14 03:22:21;;;;;;;;;;;;;;;;;;4993269;28;19921;-52
2021/05/14 03:24:47;;;;;;;;;;;;;;;;;;4992675;28;19914;-51
2021/05/14 03:27:12;;;;;;;;;;;;;;;;;;4993210;28;20015;-51
2021/05/14 03:29:37;;;;;;;;;;;;;;;;;;4992315;28;19969;-51
2021/05/14 03:32:03;;;;;;;;;;;;;;;;;;4992174;28;19918;-51
2021/05/14 03:34:29;;;;;;;;;;;;;;;;;;4993591;28;19969;-52
2021/05/14 03:36:54;;;;;;;;;;;;;;;;;;4976050;28;20384;-52
2021/05/14 03:39:22;;;;;;;;;;;;;;;;;;4992257;28;20432;-51
2021/05/14 03:42:06;;;;;;;;;;;;;;;;;;4993359;28;19921;-51
2021/05/14 03:44:32;;;;;;;;;;;;;;;;;;4993403;28;19914;-53
2021/05/14 03:46:57;;;;;;;;;;;;;;;;;;4993200;28;20266;-53
2021/05/14 03:49:22;;;;;;;;;;;;;;;;;;4993023;28;19996;-53
2021/05/14 03:51:47;;;;;;;;;;;;;;;;;;4992097;28;19914;-51
2021/05/14 03:54:13;;;;;;;;;;;;;;;;;;4993064;28;19925;-53
2021/05/14 03:56:38;;;;;;;;;;;;;;;;;;4995674;28;20388;-54
2021/05/14 03:59:03;;;;;;;;;;;;;;;;;;4995558;28;20377;-51
2021/05/14 04:01:28;;;;;;;;;;;;;;;;;;4996792;28;19913;-53
2021/05/14 04:03:54;;;;;;;;;;;;;;;;;;4995993;28;19918;-52
2021/05/14 04:06:19;;;;;;;;;;;;;;;;;;4996563;28;20004;-51
2021/05/14 04:08:44;;;;;;;;;;;;;;;;;;4996701;28;19957;-55
2021/05/14 04:16:25;;;;;;;;;;;;;;;;;;4996218;28;20266;-51
2021/05/14 04:18:50;;;;;;;;;;;;;;;;;;4996609;28;19921;-50
2021/05/14 04:21:15;;;;;;;;;;;;;;;;;;4978665;28;19985;-54
2021/05/14 04:23:40;;;;;;;;;;;;;;;;;;4996338;28;20377;-51
2021/05/14 04:26:05;;;;;;;;;;;;;;;;;;4996245;28;20344;-51
2021/05/14 04:28:31;;;;;;;;;;;;;;;;;;4996186;28;20425;-52
2021/05/14 04:30:56;;;;;;;;;;;;;;;;;;4995121;28;20284;-53
2021/05/14 04:33:21;;;;;;;;;;;;;;;;;;4994791;28;20079;-50
2021/05/14 04:35:48;;;;;;;;;;;;;;;;;;4983814;28;20367;-53
2021/05/14 04:38:13;;;;;;;;;;;;;;;;;;4984570;28;20412;-51
2021/05/14 04:40:38;;;;;;;;;;;;;;;;;;4985200;28;19913;-51
2021/05/14 04:43:03;;;;;;;;;;;;;;;;;;4986112;28;19918;-54
2021/05/14 04:45:28;;;;;;;;;;;;;;;;;;4984752;28;19942;-52
2021/05/14 04:47:54;;;;;;;;;;;;;;;;;;4988750;28;19917;-54
2021/05/14 04:50:19;;;;;;;;;;;;;;;;;;4995582;28;19913;-51
2021/05/14 04:52:44;;;;;;;;;;;;;;;;;;4995941;28;19910;-55
2021/05/14 04:55:09;;;;;;;;;;;;;;;;;;4995822;28;19921;-55
2021/05/14 04:57:35;;;;;;;;;;;;;;;;;;4995339;28;19917;-54
2021/05/14 05:00:00;;;;;;;;;;;;;;;;;;4995661;28;19957;-54
2021/05/14 05:02:25;;;;;;;;;;;;;;;;;;4994192;28;20362;-51
2021/05/14 05:04:50;;;;;;;;;;;;;;;;;;4995735;28;19941;-54
2021/05/14 05:07:16;;;;;;;;;;;;;;;;;;4994060;28;19925;-54
2021/05/14 05:09:41;;;;;;;;;;;;;;;;;;4995652;28;19910;-52
2021/05/14 05:12:06;;;;;;;;;;;;;;;;;;4995516;28;19921;-54
2021/05/14 05:14:31;;;;;;;;;;;;;;;;;;4995085;28;19914;-53
2021/05/14 05:16:56;;;;;;;;;;;;;;;;;;4995506;28;19960;-55
2021/05/14 05:19:22;;;;;;;;;;;;;;;;;;4995072;28;19914;-51
2021/05/14 05:21:47;;;;;;;;;;;;;;;;;;4995469;28;19921;-54
2021/05/14 05:24:12;;;;;;;;;;;;;;;;;;4993984;28;19924;-51
2021/05/14 05:26:38;;;;;;;;;;;;;;;;;;4993622;28;19910;-54
2021/05/14 05:29:03;;;;;;;;;;;;;;;;;;4994191;28;20013;-50
2021/05/14 05:31:28;;;;;;;;;;;;;;;;;;4993694;28;19968;-52
2021/05/14 05:33:53;;;;;;;;;;;;;;;;;;4995636;28;19914;-53
2021/05/14 05:36:18;;;;;;;;;;;;;;;;;;4993314;28;20374;-50
2021/05/14 05:38:44;;;;;;;;;;;;;;;;;;4995069;28;19909;-55
2021/05/14 05:41:09;;;;;;;;;;;;;;;;;;4993899;28;19968;-51
2021/05/14 05:43:34;;;;;;;;;;;;;;;;;;4994513;28;19922;-50
2021/05/14 05:45:59;;;;;;;;;;;;;;;;;;4995008;28;19920;-51
2021/05/14 05:48:25;;;;;;;;;;;;;;;;;;4994601;28;20328;-51
2021/05/14 05:50:50;;;;;;;;;;;;;;;;;;4993611;28;19913;-52
2021/05/14 05:53:15;;;;;;;;;;;;;;;;;;4994668;28;20362;-50
2021/05/14 05:55:41;;;;;;;;;;;;;;;;;;4992984;28;19914;-49
2021/05/14 05:58:06;;;;;;;;;;;;;;;;;;4994971;28;19914;-49
2021/05/14 06:00:31;;;;;;;;;;;;;;;;;;4992910;28;20013;-53
2021/05/14 06:02:58;;;;;;;;;;;;;;;;;;4993723;28;20223;-51
2021/05/14 06:05:23;;;;;;;;;;;;;;;;;;4994155;28;19968;-49
2021/05/14 06:07:48;;;;;;;;;;;;;;;;;;4994524;28;20015;-55
2021/05/14 06:10:13;;;;;;;;;;;;;;;;;;4994368;28;19913;-52
2021/05/14 06:12:39;;;;;;;;;;;;;;;;;;4992754;28;19920;-51
2021/05/14 06:15:04;;;;;;;;;;;;;;;;;;4977137;28;20362;-53
2021/05/14 06:17:29;;;;;;;;;;;;;;;;;;4994176;28;20321;-52
2021/05/14 06:19:57;;;;;;;;;;;;;;;;;;4981812;28;20267;-51
2021/05/14 06:22:22;;;;;;;;;;;;;;;;;;4984167;28;19929;-52
2021/05/14 06:24:47;;;;;;;;;;;;;;;;;;4981430;28;19914;-52
2021/05/14 06:27:13;;;;;;;;;;;;;;;;;;4992727;28;19913;-55
2021/05/14 06:29:38;;;;;;;;;;;;;;;;;;4992613;28;20009;-54
2021/05/14 06:32:03;;;;;;;;;;;;;;;;;;4994139;28;19961;-52
2021/05/14 06:34:28;;;;;;;;;;;;;;;;;;4992690;28;19918;-54
2021/05/14 06:36:54;;;;;;;;;;;;;;;;;;4993921;28;19934;-56
2021/05/14 06:39:19;;;;;;;;;;;;;;;;;;4993959;28;19931;-51
2021/05/14 06:41:44;;;;;;;;;;;;;;;;;;4993491;28;19972;-51
2021/05/14 06:44:09;;;;;;;;;;;;;;;;;;4994040;28;19914;-51
2021/05/14 06:46:35;;;;;;;;;;;;;;;;;;4992427;28;19910;-53
2021/05/14 06:49:00;;;;;;;;;;;;;;;;;;4993916;28;19918;-55
2021/05/14 06:51:25;;;;;;;;;;;;;;;;;;4983873;28;19921;-52
2021/05/14 06:53:51;;;;;;;;;;;;;;;;;;4982893;28;19914;-53
2021/05/14 06:56:16;;;;;;;;;;;;;;;;;;4982877;28;19914;-53
2021/05/14 06:58:42;;;;;;;;;;;;;;;;;;4984765;28;20371;-54
2021/05/14 07:01:07;;;;;;;;;;;;;;;;;;4985135;28;19914;-54
2021/05/14 07:03:32;;;;;;;;;;;;;;;;;;4982229;28;20556;-54
2021/05/14 07:05:58;;;;;;;;;;;;;;;;;;4984756;28;20370;-55
2021/05/14 07:08:23;;;;;;;;;;;;;;;;;;4981522;28;19972;-53
2021/05/14 07:10:48;;;;;;;;;;;;;;;;;;4980322;28;19914;-51
2021/05/14 07:13:13;;;;;;;;;;;;;;;;;;4984486;28;20362;-52
2021/05/14 07:15:38;;;;;;;;;;;;;;;;;;4982325;28;20433;-54
2021/05/14 07:18:04;;;;;;;;;;;;;;;;;;4983238;28;20336;-54
2021/05/14 07:20:32;;;;;;;;;;;;;;;;;;4982532;28;20376;-50
2021/05/14 07:22:57;;;;;;;;;;;;;;;;;;4982787;28;19929;-54
2021/05/14 07:25:23;;;;;;;;;;;;;;;;;;4982971;28;19918;-54
2021/05/14 07:27:48;;;;;;;;;;;;;;;;;;4980896;28;19921;-52
2021/05/14 07:30:13;;;;;;;;;;;;;;;;;;4984315;28;19920;-52
2021/05/14 07:32:38;;;;;;;;;;;;;;;;;;4984569;28;20378;-53
2021/05/14 07:35:04;;;;;;;;;;;;;;;;;;4987284;28;19920;-54
2021/05/14 07:37:29;;;;;;;;;;;;;;;;;;4986703;28;20373;-53
2021/05/14 07:39:54;;;;;;;;;;;;;;;;;;4990862;28;19920;-52
2021/05/14 07:42:20;;;;;;;;;;;;;;;;;;4997385;28;19917;-53
2021/05/14 07:44:45;;;;;;;;;;;;;;;;;;4997487;28;19916;-51
2021/05/14 07:47:10;;;;;;;;;;;;;;;;;;4997746;28;19916;-51
2021/05/14 07:49:35;;;;;;;;;;;;;;;;;;4993898;28;19925;-55
2021/05/14 07:52:01;;;;;;;;;;;;;;;;;;4987212;28;19992;-54
2021/05/14 07:54:26;;;;;;;;;;;;;;;;;;4986698;28;20261;-52
2021/05/14 07:56:51;;;;;;;;;;;;;;;;;;4978069;28;19960;-56
2021/05/14 07:59:16;;;;;;;;;;;;;;;;;;4977064;28;20358;-54
2021/05/14 08:01:42;;;;;;;;;;;;;;;;;;4977240;28;19914;-54
2021/05/14 08:04:07;;;;;;;;;;;;;;;;;;4976280;28;19918;-55
2021/05/14 08:06:32;;;;;;;;;;;;;;;;;;4977382;28;19910;-53
2021/05/14 08:08:59;;;;;;;;;;;;;;;;;;4976769;28;20264;-53
2021/05/14 08:11:25;;;;;;;;;;;;;;;;;;4977432;28;19917;-55
2021/05/14 08:13:50;;;;;;;;;;;;;;;;;;4977415;28;19914;-54
2021/05/14 08:16:15;;;;;;;;;;;;;;;;;;4977954;28;19906;-54
2021/05/14 08:18:40;;;;;;;;;;;;;;;;;;4976227;28;19910;-55
2021/05/14 08:21:06;;;;;;;;;;;;;;;;;;4976212;28;19937;-53
2021/05/14 08:23:31;;;;;;;;;;;;;;;;;;4975281;28;19918;-53
2021/05/14 08:25:56;;;;;;;;;;;;;;;;;;4976439;28;20266;-53
2021/05/14 08:28:21;;;;;;;;;;;;;;;;;;4977013;28;19965;-53
2021/05/14 08:30:47;;;;;;;;;;;;;;;;;;4977151;28;20423;-53
2021/05/14 08:33:12;;;;;;;;;;;;;;;;;;4977409;28;19910;-55
2021/05/14 08:35:37;;;;;;;;;;;;;;;;;;4977010;28;19914;-53
2021/05/14 08:38:02;;;;;;;;;;;;;;;;;;4977008;28;19969;-55
2021/05/14 08:40:27;;;;;;;;;;;;;;;;;;4976090;28;20372;-53
2021/05/14 08:42:53;;;;;;;;;;;;;;;;;;4976640;28;19922;-54
2021/05/14 08:45:18;;;;;;;;;;;;;;;;;;4977249;28;19910;-51
2021/05/14 08:47:43;;;;;;;;;;;;;;;;;;4976624;28;20301;-53
2021/05/14 08:50:08;;;;;;;;;;;;;;;;;;4976881;28;20302;-54
2021/05/14 08:52:34;;;;;;;;;;;;;;;;;;4976578;28;19942;-55
2021/05/14 08:55:00;;;;;;;;;;;;;;;;;;4975275;28;19910;-55
2021/05/14 08:57:25;;;;;;;;;;;;;;;;;;4976596;28;19969;-54
2021/05/14 08:59:51;;;;;;;;;;;;;;;;;;4976488;28;20298;-55
2021/05/14 09:02:16;;;;;;;;;;;;;;;;;;4976364;28;20255;-53
2021/05/14 09:04:41;;;;;;;;;;;;;;;;;;4976057;28;19913;-55
2021/05/14 09:07:06;;;;;;;;;;;;;;;;;;4976424;28;19910;-54
2021/05/14 09:09:32;;;;;;;;;;;;;;;;;;4983244;28;20262;-53
2021/05/14 09:11:57;;;;;;;;;;;;;;;;;;4987584;28;20714;-54
2021/05/14 09:14:22;;;;;;;;;;;;;;;;;;4976218;28;19906;-54
2021/05/14 09:16:47;;;;;;;;;;;;;;;;;;4976025;28;19998;-53
2021/05/14 09:19:12;;;;;;;;;;;;;;;;;;4976270;28;20012;-53
2021/05/14 09:21:38;;;;;;;;;;;;;;;;;;4976044;28;19977;-52
2021/05/14 09:24:03;;;;;;;;;;;;;;;;;;4974823;28;19921;-54
2021/05/14 09:26:28;;;;;;;;;;;;;;;;;;4975944;28;20452;-54
2021/05/14 09:28:54;;;;;;;;;;;;;;;;;;4976018;28;19910;-52
2021/05/14 09:31:19;;;;;;;;;;;;;;;;;;4976084;28;20251;-54
2021/05/14 09:33:44;;;;;;;;;;;;;;;;;;4976289;28;19906;-55
2021/05/14 09:36:09;;;;;;;;;;;;;;;;;;4975984;28;20009;-54
2021/05/14 09:38:35;;;;;;;;;;;;;;;;;;4975084;28;20373;-50
2021/05/14 09:41:00;;;;;;;;;;;;;;;;;;4975525;28;19910;-53
2021/05/14 09:43:26;;;;;;;;;;;;;;;;;;4975812;28;19914;-55
2021/05/14 09:45:51;;;;;;;;;;;;;;;;;;4974241;28;19914;-53
2021/05/14 09:48:22;;;;;;;;;;;;;;;;;;4975085;28;19920;-56
2021/05/14 09:50:47;;;;;;;;;;;;;;;;;;4973260;28;19910;-54
2021/05/14 09:53:12;;;;;;;;;;;;;;;;;;4972997;28;20448;-55
2021/05/14 09:55:38;;;;;;;;;;;;;;;;;;4973946;28;20346;-52
2021/05/14 09:58:04;;;;;;;;;;;;;;;;;;4975065;28;19918;-54
2021/05/14 10:00:29;;;;;;;;;;;;;;;;;;4975853;28;20024;-55
2021/05/14 10:02:54;;;;;;;;;;;;;;;;;;4973862;28;19918;-52
2021/05/14 10:05:20;;;;;;;;;;;;;;;;;;4975622;28;19992;-53
2021/05/14 10:07:46;;;;;;;;;;;;;;;;;;4974716;28;19914;-53
2021/05/14 10:10:11;;;;;;;;;;;;;;;;;;4974754;28;19910;-53
2021/05/14 10:12:36;;;;;;;;;;;;;;;;;;4978500;28;19912;-56
2021/05/14 10:15:02;;;;;;;;;;;;;;;;;;4978168;28;19918;-54
2021/05/14 10:17:27;;;;;;;;;;;;;;;;;;4975368;28;19910;-54
2021/05/14 10:19:53;;;;;;;;;;;;;;;;;;4974973;28;19937;-53
2021/05/14 10:22:18;;;;;;;;;;;;;;;;;;4973524;28;19918;-54
2021/05/14 10:24:43;;;;;;;;;;;;;;;;;;4974268;28;20450;-54
2021/05/14 10:27:08;;;;;;;;;;;;;;;;;;4975378;28;20262;-56
2021/05/14 10:29:34;;;;;;;;;;;;;;;;;;4975041;28;19916;-53
2021/05/14 10:31:59;;;;;;;;;;;;;;;;;;4973988;28;19957;-55
2021/05/14 10:34:24;;;;;;;;;;;;;;;;;;4957564;28;19960;-52
2021/05/14 10:36:49;;;;;;;;;;;;;;;;;;4973505;28;19953;-54
2021/05/14 10:39:15;;;;;;;;;;;;;;;;;;4973654;28;19964;-55
2021/05/14 10:41:40;;;;;;;;;;;;;;;;;;4974836;28;19992;-55
2021/05/14 10:44:05;;;;;;;;;;;;;;;;;;4974446;28;19918;-53
2021/05/14 10:46:31;;;;;;;;;;;;;;;;;;4974884;28;19917;-54
2021/05/14 10:48:56;;;;;;;;;;;;;;;;;;4974387;28;19954;-54
2021/05/14 10:51:22;;;;;;;;;;;;;;;;;;4974724;28;20325;-56
2021/05/14 10:53:47;;;;;;;;;;;;;;;;;;4972142;28;20350;-57
2021/05/14 10:56:12;;;;;;;;;;;;;;;;;;4974422;28;20346;-56
2021/05/14 10:58:41;;;;;;;;;;;;;;;;;;4974580;28;19910;-57
2021/05/14 11:01:06;;;;;;;;;;;;;;;;;;4973145;28;19911;-56
2021/05/14 11:03:31;;;;;;;;;;;;;;;;;;4973214;28;20329;-56
2021/05/14 11:05:56;;;;;;;;;;;;;;;;;;4979699;28;19910;-54
2021/05/14 11:08:22;;;;;;;;;;;;;;;;;;4979950;28;20001;-54
2021/05/14 11:10:47;;;;;;;;;;;;;;;;;;4980822;28;20012;-53
2021/05/14 11:13:12;;;;;;;;;;;;;;;;;;4980859;28;20017;-54
2021/05/14 11:15:37;;;;;;;;;;;;;;;;;;4980935;28;19917;-56
2021/05/14 11:18:02;;;;;;;;;;;;;;;;;;4980591;28;19937;-55
2021/05/14 11:20:28;;;;;;;;;;;;;;;;;;4981329;28;19910;-55
2021/05/14 11:22:53;;;;;;;;;;;;;;;;;;4978499;28;19968;-53
2021/05/14 11:25:21;;;;;;;;;;;;;;;;;;4980711;28;19910;-56
2021/05/14 11:27:50;;;;;;;;;;;;;;;;;;4980923;28;19998;-54
2021/05/14 11:30:16;;;;;;;;;;;;;;;;;;4980731;28;20342;-55
2021/05/14 11:32:41;;;;;;;;;;;;;;;;;;4980646;28;20041;-54
2021/05/14 11:35:06;;;;;;;;;;;;;;;;;;4980383;28;19949;-52
2021/05/14 11:37:31;;;;;;;;;;;;;;;;;;4979536;28;19918;-55
2021/05/14 11:39:57;;;;;;;;;;;;;;;;;;4990274;28;19913;-55
2021/05/14 11:42:22;;;;;;;;;;;;;;;;;;5000093;28;19939;-55
2021/05/14 11:44:47;;;;;;;;;;;;;;;;;;5000447;28;19917;-56
2021/05/14 11:47:12;;;;;;;;;;;;;;;;;;5000706;28;20300;-55
2021/05/14 11:49:38;;;;;;;;;;;;;;;;;;5000972;28;20437;-54
2021/05/14 11:52:03;;;;;;;;;;;;;;;;;;4998559;28;20352;-53
2021/05/14 11:54:28;;;;;;;;;;;;;;;;;;4998470;28;19916;-56
2021/05/14 11:56:53;;;;;;;;;;;;;;;;;;4999591;28;19992;-63
2021/05/14 11:59:18;;;;;;;;;;;;;;;;;;5000393;28;19968;-57
2021/05/14 12:01:44;;;;;;;;;;;;;;;;;;5000426;28;20369;-56
2021/05/14 12:04:09;;;;;;;;;;;;;;;;;;4999704;28;19921;-54
2021/05/14 12:06:34;;;;;;;;;;;;;;;;;;4999498;28;19910;-54
2021/05/14 12:08:59;;;;;;;;;;;;;;;;;;4999364;28;20000;-56
2021/05/14 12:11:25;;;;;;;;;;;;;;;;;;4999846;28;19909;-53
2021/05/14 12:13:50;;;;;;;;;;;;;;;;;;4998757;28;19913;-54
2021/05/14 12:16:15;;;;;;;;;;;;;;;;;;4997841;28;19909;-54
2021/05/14 12:18:40;;;;;;;;;;;;;;;;;;4996871;28;19933;-56
2021/05/14 12:21:06;;;;;;;;;;;;;;;;;;4996114;28;20300;-55
2021/05/14 12:23:31;;;;;;;;;;;;;;;;;;4996056;28;19941;-56
2021/05/14 12:26:00;;;;;;;;;;;;;;;;;;4996650;28;19997;-55
2021/05/14 12:28:25;;;;;;;;;;;;;;;;;;4996649;28;19941;-53
2021/05/14 12:30:50;;;;;;;;;;;;;;;;;;4977250;28;19953;-55
2021/05/14 12:33:16;;;;;;;;;;;;;;;;;;4975843;28;19932;-52
2021/05/14 12:35:41;;;;;;;;;;;;;;;;;;4977071;28;19910;-53
2021/05/14 12:38:06;;;;;;;;;;;;;;;;;;4975973;28;20321;-54
2021/05/14 12:40:31;;;;;;;;;;;;;;;;;;4976830;28;19914;-55
2021/05/14 12:42:56;;;;;;;;;;;;;;;;;;4976852;28;19921;-54
2021/05/14 12:45:22;;;;;;;;;;;;;;;;;;4976458;28;19910;-53
2021/05/14 12:47:47;;;;;;;;;;;;;;;;;;4976789;28;19957;-54
2021/05/14 12:50:13;;;;;;;;;;;;;;;;;;4976452;28;19964;-54
2021/05/14 12:52:38;;;;;;;;;;;;;;;;;;4975409;28;19910;-54
2021/05/14 12:55:03;;;;;;;;;;;;;;;;;;4976086;28;19965;-56
2021/05/14 12:57:29;;;;;;;;;;;;;;;;;;4976923;28;19981;-56
2021/05/14 12:59:54;;;;;;;;;;;;;;;;;;4978184;28;19917;-56
2021/05/14 13:02:19;;;;;;;;;;;;;;;;;;4995445;28;19921;-58
2021/05/14 13:04:45;;;;;;;;;;;;;;;;;;4995733;28;19993;-59
2021/05/14 13:07:10;;;;;;;;;;;;;;;;;;4994778;28;19969;-56
2021/05/14 13:09:35;;;;;;;;;;;;;;;;;;4995769;28;20281;-55
2021/05/14 13:12:01;;;;;;;;;;;;;;;;;;4996101;28;19916;-55
2021/05/14 13:14:26;;;;;;;;;;;;;;;;;;4995725;28;20268;-55
2021/05/14 13:16:51;;;;;;;;;;;;;;;;;;4995721;28;19910;-56
2021/05/14 13:19:17;;;;;;;;;;;;;;;;;;4995585;28;19910;-52
2021/05/14 13:21:42;;;;;;;;;;;;;;;;;;4994761;28;19906;-55
2021/05/14 13:24:07;;;;;;;;;;;;;;;;;;4995029;28;19941;-56
2021/05/14 13:26:32;;;;;;;;;;;;;;;;;;4995421;28;19910;-56
2021/05/14 13:28:58;;;;;;;;;;;;;;;;;;4994475;28;19910;-56
2021/05/14 13:31:23;;;;;;;;;;;;;;;;;;4993985;28;19988;-55
2021/05/14 13:33:48;;;;;;;;;;;;;;;;;;4994415;28;19916;-54
2021/05/14 13:36:14;;;;;;;;;;;;;;;;;;4994528;28;19917;-54
2021/05/14 13:38:39;;;;;;;;;;;;;;;;;;4994974;28;20262;-55
2021/05/14 13:41:04;;;;;;;;;;;;;;;;;;4995062;28;20330;-56
2021/05/14 13:43:29;;;;;;;;;;;;;;;;;;4994883;28;19964;-55
2021/05/14 13:45:55;;;;;;;;;;;;;;;;;;4995505;28;19945;-55
2021/05/14 13:48:20;;;;;;;;;;;;;;;;;;4994149;28;19917;-52
2021/05/14 13:50:45;;;;;;;;;;;;;;;;;;4994696;28;20257;-54
2021/05/14 13:53:11;;;;;;;;;;;;;;;;;;4992899;28;19948;-56
2021/05/14 13:55:36;;;;;;;;;;;;;;;;;;4993901;28;19921;-55
2021/05/14 13:58:01;;;;;;;;;;;;;;;;;;4993861;28;19913;-54
2021/05/14 14:00:26;;;;;;;;;;;;;;;;;;4993435;28;19910;-56
2021/05/14 14:02:52;;;;;;;;;;;;;;;;;;4990314;28;19918;-52
2021/05/14 14:05:17;;;;;;;;;;;;;;;;;;4994142;28;19917;-55
2021/05/14 14:07:42;;;;;;;;;;;;;;;;;;4994083;28;19910;-56
2021/05/14 14:10:07;;;;;;;;;;;;;;;;;;4994496;28;19917;-54
2021/05/14 14:12:32;;;;;;;;;;;;;;;;;;4993218;28;20330;-55
2021/05/14 14:14:58;;;;;;;;;;;;;;;;;;4994841;28;19910;-56
2021/05/14 14:17:23;;;;;;;;;;;;;;;;;;4994302;28;19920;-56
2021/05/14 14:19:48;;;;;;;;;;;;;;;;;;4993327;28;19917;-57
2021/05/14 14:22:13;;;;;;;;;;;;;;;;;;4993528;28;19918;-56
2021/05/14 14:24:39;;;;;;;;;;;;;;;;;;4994180;28;19951;-55
2021/05/14 14:27:04;;;;;;;;;;;;;;;;;;4994306;28;19925;-53
2021/05/14 14:29:31;;;;;;;;;;;;;;;;;;4994106;28;19909;-53
2021/05/14 14:31:56;;;;;;;;;;;;;;;;;;4979778;28;19932;-55
2021/05/14 14:34:22;;;;;;;;;;;;;;;;;;4974577;28;20359;-56
2021/05/14 14:36:47;;;;;;;;;;;;;;;;;;4974007;28;19917;-55
2021/05/14 14:39:12;;;;;;;;;;;;;;;;;;4974452;28;19918;-56
2021/05/14 14:41:37;;;;;;;;;;;;;;;;;;4974980;28;19917;-55
2021/05/14 14:44:04;;;;;;;;;;;;;;;;;;4974607;28;20357;-54
2021/05/14 14:46:29;;;;;;;;;;;;;;;;;;4973377;28;19966;-56
2021/05/14 14:48:55;;;;;;;;;;;;;;;;;;4974725;28;20307;-53
2021/05/14 14:51:20;;;;;;;;;;;;;;;;;;4973501;28;19906;-52
2021/05/14 14:53:45;;;;;;;;;;;;;;;;;;4974351;28;20016;-52
2021/05/14 14:56:11;;;;;;;;;;;;;;;;;;4974720;28;19996;-53
2021/05/14 14:58:36;;;;;;;;;;;;;;;;;;4974540;28;19914;-52
2021/05/14 15:01:01;;;;;;;;;;;;;;;;;;4974631;28;19906;-53
2021/05/14 15:03:26;;;;;;;;;;;;;;;;;;4974649;28;19910;-50
2021/05/14 15:05:54;;;;;;;;;;;;;;;;;;4973941;28;19918;-54
2021/05/14 15:08:19;;;;;;;;;;;;;;;;;;4973936;28;19973;-54
2021/05/14 15:10:44;;;;;;;;;;;;;;;;;;4986080;28;20345;-51
2021/05/14 15:13:09;;;;;;;;;;;;;;;;;;4993658;28;19925;-52
2021/05/14 15:15:35;;;;;;;;;;;;;;;;;;4984864;28;19910;-55
2021/05/14 15:18:00;;;;;;;;;;;;;;;;;;4984623;28;19910;-55
2021/05/14 15:20:27;;;;;;;;;;;;;;;;;;4983490;28;19916;-54
2021/05/14 15:22:53;;;;;;;;;;;;;;;;;;4986112;28;19906;-51
2021/05/14 15:25:19;;;;;;;;;;;;;;;;;;4983533;28;19917;-55
2021/05/14 15:27:44;;;;;;;;;;;;;;;;;;4972397;28;19910;-52
2021/05/14 15:30:09;;;;;;;;;;;;;;;;;;4992464;28;20009;-54
2021/05/14 15:32:35;;;;;;;;;;;;;;;;;;4993375;28;19929;-54
2021/05/14 15:35:01;;;;;;;;;;;;;;;;;;4993310;28;19920;-52
2021/05/14 15:37:26;;;;;;;;;;;;;;;;;;4992794;28;19914;-53
2021/05/14 15:39:51;;;;;;;;;;;;;;;;;;4993408;28;20254;-53
2021/05/14 15:42:16;;;;;;;;;;;;;;;;;;4993629;28;20334;-53
2021/05/14 15:44:42;;;;;;;;;;;;;;;;;;4987266;28;19914;-55
2021/05/14 15:47:07;;;;;;;;;;;;;;;;;;4984000;28;19993;-53
2021/05/14 15:49:32;;;;;;;;;;;;;;;;;;4981928;28;19921;-55
